WETTERDATEN

GESTERN
Time Temp. Taup. r.Fe. Windrich Windstärke Windböe Druck 1h Prec. 24h Prec.
00:04 22.3 14.9 63 251 0.8 1.9 1002 0.3000 0.3000
00:14 22 15.1 65 270 0.3 1.4 1001.8 1.3030 1.3000
00:24 21.4 14.8 66 270 0.3 1.1 1001.7 1.5030 1.5000
00:33 21.1 14.5 66 270 0.3 1.1 1001.4 1.5030 1.5000
00:44 20.7 14.4 67 270 0.3 1.4 1001.2 1.5030 1.5000
00:54 20.4 14.3 68 270 0.3 1.1 1001 1.5030 1.5000
01:04 20.4 14.3 68 270 0.3 1.1 1001.1 0.5010 1.5000
01:14 20.4 14.3 68 270 0.3 1.4 1000.6 0.1000 1.5000
01:24 20.3 14.4 69 270 0.3 1.1 1000.4 0.0000 1.5000
01:34 20.2 14.3 69 270 0.3 1.4 1000.5 0.0000 1.5000
01:44 19.9 14 69 270 0.3 1.9 1000.5 0.0000 1.5000
01:55 19.8 14.2 70 270 0.3 1.1 1000.4 0.0000 1.5000
02:05 19.7 14.1 70 270 0.3 1.4 1000.3 0.0000 1.5000
02:14 19.6 14.2 71 270 0.3 1.9 1000.4 0.0000 1.5000
02:25 19.6 14.2 71 270 0.3 1.4 1000.2 0.0000 1.5000
02:35 19.5 14.3 72 284 0.8 1.9 1000.2 0.0000 1.5000
02:49 19.6 14.4 72 270 0.3 1.4 1000.2 0.3010 1.8000
03:00 19.6 14.6 73 234 0.8 2.2 1000 1.4030 2.9000
03:10 19.5 14.5 73 237 0.8 1.4 1000 1.6030 3.1000
03:20 19.4 14.7 74 232 0.8 1.9 999.9 3.2060 4.7000
03:30 19.3 14.8 75 228 0.8 2.5 999.7 6.3130 7.8000
03:40 19.2 14.7 75 225 1.1 3.1 999.5 6.4130 7.9000
03:50 19.2 14.7 75 229 0.8 1.9 999.5 6.1120 7.9000
04:00 19.3 14.8 75 229 1.1 2.5 999.6 7.0140 9.9000
04:10 19.3 14.8 75 221 1.1 2.5 999.6 6.9140 10.0000
04:21 19.2 14.7 75 222 0.8 2.2 999.7 5.4110 10.1000
04:30 19.1 14.8 76 240 1.1 2.2 999.5 2.3040 10.1000
04:40 19 14.7 76 228 0.8 1.9 999.4 2.2040 10.1000
04:51 19 14.7 76 221 0.8 1.9 999.5 2.2040 10.1000
05:01 19 14.7 76 225 0.3 2.2 999.3 0.4000 10.3000
05:11 18.9 14.6 76 219 0.8 2.2 999.3 0.4000 10.4000
05:21 18.9 14.6 76 270 0.3 1.1 999.4 0.4000 10.5000
05:31 18.7 14.4 76 225 0.3 1.4 998.9 0.5000 10.6000
05:41 18.7 14.4 76 225 0.8 2.2 999.1 0.5000 10.6000
05:51 18.5 14.2 76 213 0.3 1.1 999.2 0.5000 10.6000
06:01 18.3 14 76 225 0.8 1.9 999.1 0.3000 10.6000
06:11 18.3 14 76 231 0.3 1.9 999.3 0.2000 10.6000
06:21 18.2 13.9 76 219 0.8 1.9 999.3 0.2000 10.7000
06:31 18.2 13.7 75 235 0.8 2.2 999.4 0.1000 10.7000
06:42 18.1 13.6 75 229 0.8 1.9 999.5 0.1000 10.7000
06:51 18 13.5 75 236 1.1 2.5 999.5 0.1000 10.7000
07:01 17.8 13.3 75 231 1.1 1.9 999.3 0.1000 10.7000
07:12 17.8 13.3 75 238 0.8 1.4 999.3 0.1000 10.7000
07:22 17.9 13.4 75 245 0.8 1.9 999.3 0.0000 10.7000
07:32 17.8 13.1 74 233 1.1 2.5 999.5 0.0000 10.7000
07:41 17.7 13 74 242 0.8 1.9 999.7 0.0000 10.7000
07:52 17.7 13 74 270 0.3 2.2 999.6 0.0000 10.7000
08:02 17.7 13 74 235 0.8 2.2 999.5 0.0000 10.7000
08:12 17.6 12.9 74 248 0.8 2.2 999.6 0.0000 10.7000
08:22 17.7 13 74 345 0.8 1.4 999.8 0.0000 10.7000
08:32 17.7 13 74 294 0.8 1.9 1000 0.0000 10.7000
08:42 17.6 12.9 74 16 0.8 1.9 1000 0.0000 10.7000
08:52 17.4 12.7 74 323 0.8 1.4 1000.2 0.0000 10.7000
09:03 17.2 12.5 74 336 0.8 2.2 1000.3 0.0000 10.7000
09:12 17.1 12.4 74 323 0.8 1.4 1000.3 0.0000 10.7000
09:22 17 12.3 74 330 0.3 1.1 1000.5 0.0000 10.7000
09:33 17 12.3 74 5 0.8 1.4 1000.6 0.0000 10.7000
09:43 16.8 12.1 74 309 0.8 1.4 1000.8 0.0000 10.7000
10:02 16.7 12.3 75 270 0.8 1.9 1000.9 0.0000 10.7000
10:13 16.7 12.3 75 270 0.8 1.9 1000.9 0.0000 10.7000
10:23 16.6 12 74 270 0.8 1.9 1001 0.0000 10.7000
10:33 16.5 11.9 74 270 0.3 1.1 1001.3 0.0000 10.7000
10:43 16.5 11.9 74 270 0.8 2.2 1001.5 0.0000 10.7000
11:03 16.5 11.9 74 270 0.8 1.9 1001.7 0.0000 10.7000
11:24 16.3 11.7 74 270 1.1 2.2 1001.9 0.0000 10.7000
11:33 16.4 12 75 270 0.8 2.2 1002.2 0.0000 10.7000
11:43 16.4 12 75 270 0.8 3.6 1002.4 0.0000 10.7000
12:04 16.1 11.7 75 284 1.1 2.5 1002.5 0.0000 10.7000
12:14 15.9 11.5 75 259 1.1 2.5 1002.8 0.0000 10.7000
12:34 15.9 11.5 75 288 0.8 3.1 1003.2 0.0000 10.7000
12:44 15.9 11.5 75 270 1.1 3.3 1003.4 0.0000 10.7000
13:04 16.1 11.7 75 282 0.8 2.2 1003.7 0.0000 10.7000
13:14 16.2 11.8 75 270 0.8 2.2 1004.2 0.0000 10.7000
13:34 16.3 11.5 73 270 1.1 1.9 1004.5 0.0000 10.7000
13:45 16.4 11.6 73 270 0.8 2.2 1004.6 0.0000 10.7000
13:54 16.4 11.6 73 270 0.8 2.2 1004.8 0.0000 10.7000
14:04 16.5 11.6 73 270 1.1 1.9 1004.9 0.0000 10.7000
14:14 16.4 11.3 72 270 1.1 2.2 1005.1 0.0000 10.7000
14:25 16.5 11.4 72 270 0.8 1.4 1005.2 0.0000 10.7000
14:35 16.5 11.4 72 288 0.8 2.5 1005.4 0.0000 10.7000
14:44 16.7 11.6 72 270 0.8 2.5 1005.6 0.0000 10.7000
14:55 16.8 11.7 72 280 0.8 1.9 1005.7 0.0000 10.7000
15:05 16.8 11.5 71 270 0.8 1.9 1005.6 0.0000 10.7000
15:15 16.9 11.6 71 270 0.8 1.4 1005.8 0.0000 10.7000
15:25 17 11.7 71 270 1.1 2.5 1006 0.0000 10.7000
15:35 17.1 11.8 71 254 1.1 2.2 1006.2 0.0000 10.7000
15:45 17.1 11.6 70 270 1.1 3.3 1006.3 0.0000 10.7000
15:55 17.1 11.6 70 270 0.8 2.2 1006.4 0.0000 10.7000
16:06 17.1 11.6 70 270 1.1 1.9 1006.5 0.0000 10.7000
16:15 17.2 11.7 70 270 0.8 1.4 1006.4 0.0000 10.7000
16:25 17.4 12.1 71 242 0.8 3.3 1006.3 0.0000 10.7000
16:35 17.6 11.9 69 252 1.1 2.5 1006.4 0.0000 10.7000
16:46 17.6 11.9 69 270 1.1 2.5 1006.7 0.0000 10.7000
16:56 17.7 11.9 69 246 0.8 1.9 1006.6 0.0000 10.7000
17:05 17.7 11.9 69 239 0.3 2.2 1006.8 0.0000 10.7000
17:16 17.8 12 69 249 1.1 2.5 1006.9 0.0000 10.7000
17:26 17.9 11.9 68 236 0.8 1.9 1007 0.0000 10.7000
17:36 18.1 11.9 67 225 0.3 2.2 1007 0.0000 10.7000
17:46 18 11.8 67 225 0.3 2.2 1007 0.0000 10.7000
17:56 17.9 11.7 67 231 0.3 1.9 1007 0.0000 10.7000
18:06 17.8 11.6 67 90 0.3 1.9 1006.9 0.0000 10.7000
18:16 17.9 11.9 68 0 0.3 2.2 1006.9 0.0000 10.7000
18:27 18.1 11.9 67 270 0.3 2.5 1006.9 0.0000 10.7000
18:36 18.2 12.2 68 270 0.3 1.1 1006.9 0.0000 10.7000
18:46 18.1 11.9 67 270 0.3 1.4 1007.1 0.0000 10.7000
18:56 18.2 12.2 68 270 0.3 1.4 1006.9 0.0000 10.7000
19:07 18.2 12 67 270 0.3 1.9 1007 0.0000 10.7000
19:16 18.2 12 67 270 0.3 1.1 1007.1 0.0000 10.7000
19:26 18.3 12.1 67 270 0.3 2.2 1006.9 0.0000 10.7000
19:37 18.2 12 67 270 0.3 1.1 1006.8 0.0000 10.7000
19:47 18.1 11.9 67 326 0.3 1.4 1007 0.0000 10.7000
19:57 18 11.8 67 270 0.3 1.4 1007.1 0.0000 10.7000
20:06 17.9 11.7 67 270 0.3 1.4 1007.2 0.0000 10.7000
20:17 17.9 11.7 67 270 0.3 1.4 1007.3 0.0000 10.7000
20:27 17.8 11.6 67 270 0.3 1.4 1007.5 0.0000 10.7000
20:37 17.6 11.4 67 206 0.3 1.4 1007.8 0.0000 10.7000
20:47 17.4 11.2 67 236 0.3 1.9 1007.9 0.0000 10.7000
20:57 17.4 11.2 67 270 0.3 1.4 1008.1 0.0000 10.7000
21:07 17.3 11.1 67 270 0.3 1.4 1008.3 0.0000 10.7000
21:28 16.9 10.7 67 135 0.3 1.4 1008.2 0.0000 10.7000
21:38 16.9 11 68 234 0.3 1.1 1008.4 0.0000 10.7000
21:47 16.8 10.9 68 90 0.3 1.4 1008.2 0.0000 10.7000
21:58 16.6 10.7 68 270 0.3 1.4 1008.4 0.0000 10.7000
22:08 16.5 10.6 68 225 0.3 1.9 1008.3 0.0000 10.7000
22:18 16.4 10.5 68 225 0.3 1.4 1008.5 0.0000 10.7000
22:27 16.4 10.7 69 270 0.3 1.1 1008.8 0.0000 10.7000
22:38 16.4 10.7 69 240 0.3 1.4 1008.8 0.0000 10.7000
22:48 16.3 10.6 69 270 0.3 1.1 1008.9 0.0000 10.7000
22:58 16.4 10.7 69 270 0.3 1.4 1009.3 0.0000 10.7000
23:08 16.4 10.7 69 270 0.3 1.4 1009.4 0.0000 10.7000
23:18 16.3 10.6 69 270 0.3 1.4 1009.6 0.0000 10.7000
23:28 16.2 10.5 69 270 0.3 0.8 1009.6 0.0000 10.7000
23:38 16.1 10.2 68 270 0.3 1.4 1009.8 0.0000 10.7000
23:49 16 10.1 68 270 0.3 1.1 1009.6 0.0000 10.7000
23:58 16 10.1 68 270 0.3 1.4 1009.5 0.0000

TAGESSTATISTIK

2021-06-21
TEMPERATUR
MITTEL
17.8
MAXIMUM
22.3
00:04
MINIMUM
15.9
12:14
LUFTDRUCK
MITTEL
1003.5
MAXIMUM
1009.8
23:38
MINIMUM
998.9
05:31
TAUPUNKT
MITTEL
12.6
MAXIMUM
15.1
00:14
MINIMUM
10.1
23:49
FEUCHTIGKEIT
MITTEL
71
MAXIMUM
76
04:30
MINIMUM
63
00:04
WINDSTÄRKE
MITTEL
0.6
MAXIMUM
1.1
03:40
WINDBÖE
MITTEL
1.8
MAXIMUM
3.6
11:43
WINDRICHTUNG
VORHERRSCHENDE
W
58.5%
N
3.0
NO
0.0
O
1.5
SO
0.7
S
0.0
SW
31.1
W
58.5
NW
5.2
NIEDERSCHLAG
REGEN STUNDE
7.0
REGEN TAG
10.7
TEMPERATUR (°C)
MINIMUM
15.9
MAXIMUM
22.3
MITTEL
17.8
LUFTDRUCK (hpa)
MINIMUM
998.9
MAXIMUM
1009.8
MITTEL
1003.5
MESSGERÄT